createdAt,value
2023-04-16T00:00:39.176Z,1016.66
2023-04-16T00:01:39.371Z,1016.68
2023-04-16T00:02:39.698Z,1016.73
2023-04-16T00:03:39.922Z,1016.70
2023-04-16T00:04:39.988Z,1016.76
2023-04-16T00:05:40.116Z,1016.70
2023-04-16T00:06:40.248Z,1016.72
2023-04-16T00:07:40.412Z,1016.74
2023-04-16T00:08:40.603Z,1016.74
2023-04-16T00:09:40.794Z,1016.76
2023-04-16T00:10:40.943Z,1016.75
2023-04-16T00:11:41.098Z,1016.76
2023-04-16T00:12:41.260Z,1016.76
2023-04-16T00:13:41.446Z,1016.77
2023-04-16T00:14:41.658Z,1016.78
2023-04-16T00:15:41.805Z,1016.78
2023-04-16T00:16:42.038Z,1016.79
2023-04-16T00:17:42.230Z,1016.76
2023-04-16T00:18:42.344Z,1016.78
2023-04-16T00:19:42.536Z,1016.80
2023-04-16T00:20:42.693Z,1016.79
2023-04-16T00:21:42.879Z,1016.83
2023-04-16T00:22:43.070Z,1016.83
2023-04-16T00:23:43.254Z,1016.88
2023-04-16T00:24:43.477Z,1016.83
2023-04-16T00:25:43.634Z,1016.84
2023-04-16T00:26:43.817Z,1016.86
2023-04-16T00:27:44.002Z,1016.85
2023-04-16T00:28:44.173Z,1016.85
2023-04-16T00:29:44.364Z,1016.85
2023-04-16T00:30:44.533Z,1016.82
2023-04-16T00:31:44.719Z,1016.87
2023-04-16T00:32:44.946Z,1016.80
2023-04-16T00:33:45.071Z,1016.82
2023-04-16T00:34:45.277Z,1016.83
2023-04-16T00:35:45.431Z,1016.84
2023-04-16T00:36:45.617Z,1016.85
2023-04-16T00:37:45.778Z,1016.81
2023-04-16T00:38:46.007Z,1016.82
2023-04-16T00:39:46.167Z,1016.85
2023-04-16T00:40:46.331Z,1016.82
2023-04-16T00:41:46.476Z,1016.81
2023-04-16T00:42:46.663Z,1016.87
2023-04-16T00:43:46.849Z,1016.85
2023-04-16T00:44:47.025Z,1016.87
2023-04-16T00:45:47.192Z,1016.85
2023-04-16T00:46:47.541Z,1016.88
2023-04-16T00:47:47.543Z,1016.85
2023-04-16T00:48:47.698Z,1016.87
2023-04-16T00:49:47.908Z,1016.82
2023-04-16T00:50:48.055Z,1016.84
2023-04-16T00:51:48.217Z,1016.90
2023-04-16T00:52:48.417Z,1016.85
2023-04-16T00:53:48.602Z,1016.88
2023-04-16T00:54:48.827Z,1016.85
2023-04-16T00:55:48.961Z,1016.87
2023-04-16T00:56:49.136Z,1016.89
2023-04-16T00:57:49.325Z,1016.90
2023-04-16T00:58:49.496Z,1016.91
2023-04-16T00:59:49.699Z,1016.90
2023-04-16T01:00:49.848Z,1016.89
2023-04-16T01:01:50.083Z,1016.91
2023-04-16T01:02:50.303Z,1016.93
2023-04-16T01:03:50.497Z,1016.99
2023-04-16T01:04:50.562Z,1016.92
2023-04-16T01:05:50.724Z,1016.95
2023-04-16T01:06:50.899Z,1016.95
2023-04-16T01:07:51.090Z,1016.97
2023-04-16T01:08:51.291Z,1016.97
2023-04-16T01:09:51.451Z,1017.00
2023-04-16T01:10:51.652Z,1017.02
2023-04-16T01:11:51.787Z,1017.02
2023-04-16T01:12:51.983Z,1017.01
2023-04-16T01:13:52.172Z,1017.03
2023-04-16T01:14:52.322Z,1017.08
2023-04-16T01:15:52.517Z,1016.97
2023-04-16T01:16:52.702Z,1017.03
2023-04-16T01:17:52.883Z,1017.00
2023-04-16T01:18:53.056Z,1017.05
2023-04-16T01:19:53.203Z,1017.05
2023-04-16T01:20:53.375Z,1017.08
2023-04-16T01:21:53.542Z,1017.14
2023-04-16T01:22:53.735Z,1017.13
2023-04-16T01:23:53.940Z,1017.13
2023-04-16T01:24:54.093Z,1017.11
2023-04-16T01:25:54.284Z,1017.12
2023-04-16T01:26:54.437Z,1017.13
2023-04-16T01:27:54.599Z,1017.17
2023-04-16T01:28:54.809Z,1017.17
2023-04-16T01:29:54.949Z,1017.18
2023-04-16T01:30:55.159Z,1017.16
2023-04-16T01:31:55.306Z,1017.22
2023-04-16T01:32:55.517Z,1017.19
2023-04-16T01:33:55.685Z,1017.21
2023-04-16T01:34:55.829Z,1017.20
2023-04-16T01:35:55.989Z,1017.25
2023-04-16T01:36:56.200Z,1017.23
2023-04-16T01:37:56.367Z,1017.25
2023-04-16T01:38:56.541Z,1017.25
2023-04-16T01:39:56.713Z,1017.24
2023-04-16T01:40:56.863Z,1017.26
2023-04-16T01:41:57.058Z,1017.28
2023-04-16T01:42:57.233Z,1017.30
2023-04-16T01:43:57.468Z,1017.29
2023-04-16T01:44:57.592Z,1017.27
2023-04-16T01:45:57.776Z,1017.26
2023-04-16T01:46:58.086Z,1017.27
2023-04-16T01:47:58.148Z,1017.30
2023-04-16T01:48:58.304Z,1017.29
2023-04-16T01:49:58.459Z,1017.26
2023-04-16T01:50:58.645Z,1017.26
2023-04-16T01:51:58.849Z,1017.28
2023-04-16T01:52:59.019Z,1017.30
2023-04-16T01:53:59.212Z,1017.28
2023-04-16T01:54:59.375Z,1017.27
2023-04-16T01:55:59.575Z,1017.29
2023-04-16T01:56:59.707Z,1017.29
2023-04-16T01:57:59.892Z,1017.29
2023-04-16T01:59:00.137Z,1017.28
2023-04-16T02:00:00.272Z,1017.30
2023-04-16T02:01:00.527Z,1017.29
2023-04-16T02:02:00.712Z,1017.32
2023-04-16T02:03:00.909Z,1017.29
2023-04-16T02:04:01.064Z,1017.33
2023-04-16T02:05:01.110Z,1017.35
2023-04-16T02:06:01.292Z,1017.36
2023-04-16T02:07:01.448Z,1017.35
2023-04-16T02:08:01.668Z,1017.36
2023-04-16T02:09:01.812Z,1017.37
2023-04-16T02:10:01.995Z,1017.34
2023-04-16T02:11:02.176Z,1017.37
2023-04-16T02:12:02.370Z,1017.35
2023-04-16T02:13:02.561Z,1017.36
2023-04-16T02:14:02.741Z,1017.39
2023-04-16T02:15:02.884Z,1017.40
2023-04-16T02:16:03.146Z,1017.37
2023-04-16T02:17:03.266Z,1017.36
2023-04-16T02:18:03.512Z,1017.36
2023-04-16T02:19:03.576Z,1017.40
2023-04-16T02:20:03.774Z,1017.40
2023-04-16T02:21:03.927Z,1017.41
2023-04-16T02:22:04.114Z,1017.44
2023-04-16T02:23:04.314Z,1017.46
2023-04-16T02:24:04.462Z,1017.41
2023-04-16T02:25:04.650Z,1017.46
2023-04-16T02:26:04.847Z,1017.47
2023-04-16T02:27:05.022Z,1017.44
2023-04-16T02:28:05.228Z,1017.46
2023-04-16T02:29:05.386Z,1017.45
2023-04-16T02:30:05.588Z,1017.45
2023-04-16T02:31:05.733Z,1017.46
2023-04-16T02:32:05.993Z,1017.47
2023-04-16T02:33:06.318Z,1017.45
2023-04-16T02:34:06.287Z,1017.46
2023-04-16T02:35:06.462Z,1017.48
2023-04-16T02:36:06.664Z,1017.51
2023-04-16T02:37:06.824Z,1017.51
2023-04-16T02:38:07.015Z,1017.46
2023-04-16T02:39:07.344Z,1017.51
2023-04-16T02:40:07.350Z,1017.50
2023-04-16T02:41:07.499Z,1017.52
2023-04-16T02:42:07.793Z,1017.52
2023-04-16T02:43:07.886Z,1017.52
2023-04-16T02:44:08.031Z,1017.52
2023-04-16T02:45:08.225Z,1017.56
2023-04-16T02:46:08.479Z,1017.56
2023-04-16T02:47:08.617Z,1017.53
2023-04-16T02:48:08.827Z,1017.56
2023-04-16T02:49:09.127Z,1017.55
2023-04-16T02:50:09.141Z,1017.55
2023-04-16T02:51:09.312Z,1017.58
2023-04-16T02:52:09.502Z,1017.55
2023-04-16T02:53:09.700Z,1017.58
2023-04-16T02:54:09.866Z,1017.57
2023-04-16T02:55:10.032Z,1017.56
2023-04-16T02:56:10.218Z,1017.57
2023-04-16T02:57:10.398Z,1017.55
2023-04-16T02:58:10.593Z,1017.55
2023-04-16T02:59:11.009Z,1017.57
2023-04-16T03:00:10.939Z,1017.60
2023-04-16T03:01:11.109Z,1017.61
2023-04-16T03:02:11.342Z,1017.67
2023-04-16T03:03:11.482Z,1017.64
2023-04-16T03:04:11.683Z,1017.61
2023-04-16T03:05:11.809Z,1017.67
2023-04-16T03:06:11.983Z,1017.68
2023-04-16T03:07:12.137Z,1017.64
2023-04-16T03:08:12.339Z,1017.67
2023-04-16T03:09:12.569Z,1017.69
2023-04-16T03:10:12.639Z,1017.69
2023-04-16T03:11:12.815Z,1017.72
2023-04-16T03:12:13.000Z,1017.70
2023-04-16T03:13:13.151Z,1017.72
2023-04-16T03:14:13.354Z,1017.73
2023-04-16T03:15:13.505Z,1017.72
2023-04-16T03:16:13.753Z,1017.72
2023-04-16T03:17:13.917Z,1017.73
2023-04-16T03:18:14.025Z,1017.77
2023-04-16T03:19:14.181Z,1017.75
2023-04-16T03:20:14.380Z,1017.77
2023-04-16T03:21:14.534Z,1017.76
2023-04-16T03:22:14.740Z,1017.81
2023-04-16T03:23:14.889Z,1017.80
2023-04-16T03:24:15.088Z,1017.80
2023-04-16T03:25:15.268Z,1017.80
2023-04-16T03:26:15.451Z,1017.78
2023-04-16T03:27:15.656Z,1017.72
2023-04-16T03:28:15.809Z,1017.77
2023-04-16T03:29:16.001Z,1017.74
2023-04-16T03:30:16.178Z,1017.76
2023-04-16T03:31:16.345Z,1017.76
2023-04-16T03:32:16.554Z,1017.73
2023-04-16T03:33:16.687Z,1017.77
2023-04-16T03:34:16.875Z,1017.76
2023-04-16T03:35:17.023Z,1017.77
2023-04-16T03:36:17.206Z,1017.79
2023-04-16T03:37:17.410Z,1017.82
2023-04-16T03:38:17.577Z,1017.79
2023-04-16T03:39:17.760Z,1017.82
2023-04-16T03:40:17.947Z,1017.81
2023-04-16T03:41:18.129Z,1017.83
2023-04-16T03:42:18.361Z,1017.83
2023-04-16T03:43:18.495Z,1017.81
2023-04-16T03:44:18.682Z,1017.83
2023-04-16T03:45:18.852Z,1017.82
2023-04-16T03:46:19.112Z,1017.85
2023-04-16T03:47:19.257Z,1017.84
2023-04-16T03:48:19.376Z,1017.83
2023-04-16T03:49:19.553Z,1017.84
2023-04-16T03:50:19.776Z,1017.85
2023-04-16T03:51:19.901Z,1017.87
2023-04-16T03:52:20.111Z,1017.84
2023-04-16T03:53:20.264Z,1017.83
2023-04-16T03:54:22.586Z,1017.86
2023-04-16T03:55:20.613Z,1017.88
2023-04-16T03:56:20.805Z,1017.89
2023-04-16T03:57:21.002Z,1017.88
2023-04-16T03:58:21.174Z,1017.94
2023-04-16T03:59:21.343Z,1017.95
2023-04-16T04:00:21.511Z,1017.90
2023-04-16T04:01:21.710Z,1017.97
2023-04-16T04:02:21.997Z,1017.94
2023-04-16T04:03:22.188Z,1017.99
2023-04-16T04:04:22.360Z,1018.05
2023-04-16T04:05:22.409Z,1018.02
2023-04-16T04:06:22.586Z,1018.02
2023-04-16T04:07:22.788Z,1018.01
2023-04-16T04:08:22.932Z,1018.03
2023-04-16T04:09:23.104Z,1018.06
2023-04-16T04:10:23.269Z,1018.07
2023-04-16T04:11:23.459Z,1018.09
2023-04-16T04:12:23.641Z,1018.09
2023-04-16T04:13:23.806Z,1018.11
2023-04-16T04:14:23.971Z,1018.12
2023-04-16T04:15:24.147Z,1018.07
2023-04-16T04:16:24.363Z,1018.15
2023-04-16T04:17:24.501Z,1018.16
2023-04-16T04:18:24.661Z,1018.13
2023-04-16T04:19:24.824Z,1018.18
2023-04-16T04:20:24.989Z,1018.17
2023-04-16T04:21:25.163Z,1018.19
2023-04-16T04:22:25.342Z,1018.17
2023-04-16T04:23:25.503Z,1018.18
2023-04-16T04:24:25.682Z,1018.20
2023-04-16T04:25:25.860Z,1018.22
2023-04-16T04:26:26.082Z,1018.24
2023-04-16T04:27:26.302Z,1018.31
2023-04-16T04:28:26.402Z,1018.33
2023-04-16T04:29:26.566Z,1018.27
2023-04-16T04:30:26.758Z,1018.33
2023-04-16T04:31:26.963Z,1018.33
2023-04-16T04:32:27.160Z,1018.34
2023-04-16T04:33:27.309Z,1018.39
2023-04-16T04:34:27.489Z,1018.42
2023-04-16T04:35:27.642Z,1018.39
2023-04-16T04:36:27.817Z,1018.43
2023-04-16T04:37:28.005Z,1018.40
2023-04-16T04:38:28.165Z,1018.41
2023-04-16T04:39:28.332Z,1018.42
2023-04-16T04:40:28.511Z,1018.43
2023-04-16T04:41:28.689Z,1018.40
2023-04-16T04:42:28.896Z,1018.40
2023-04-16T04:43:29.024Z,1018.40
2023-04-16T04:44:29.184Z,1018.45
2023-04-16T04:45:31.698Z,1018.42
2023-04-16T04:46:29.566Z,1018.45
2023-04-16T04:47:29.765Z,1018.47
2023-04-16T04:48:29.884Z,1018.47
2023-04-16T04:49:30.050Z,1018.48
2023-04-16T04:50:30.206Z,1018.48
2023-04-16T04:51:30.370Z,1018.49
2023-04-16T04:52:30.544Z,1018.48
2023-04-16T04:53:30.703Z,1018.50
2023-04-16T04:54:30.910Z,1018.48
2023-04-16T04:55:31.051Z,1018.48
2023-04-16T04:56:31.217Z,1018.52
2023-04-16T04:57:31.448Z,1018.50
2023-04-16T04:58:31.555Z,1018.52
2023-04-16T04:59:31.726Z,1018.50
2023-04-16T05:00:31.900Z,1018.55
2023-04-16T05:01:32.089Z,1018.56
2023-04-16T05:02:32.284Z,1018.54
2023-04-16T05:03:32.461Z,1018.52
2023-04-16T05:04:32.705Z,1018.55
2023-04-16T05:05:32.751Z,1018.56
2023-04-16T05:06:32.972Z,1018.58
2023-04-16T05:07:33.116Z,1018.59
2023-04-16T05:08:33.277Z,1018.59
2023-04-16T05:09:33.459Z,1018.58
2023-04-16T05:10:33.620Z,1018.57
2023-04-16T05:11:33.789Z,1018.59
2023-04-16T05:12:33.971Z,1018.60
2023-04-16T05:13:34.133Z,1018.62
2023-04-16T05:14:34.300Z,1018.62
2023-04-16T05:15:34.478Z,1018.65
2023-04-16T05:16:34.708Z,1018.62
2023-04-16T05:17:34.832Z,1018.64
2023-04-16T05:18:34.985Z,1018.65
2023-04-16T05:19:35.160Z,1018.62
2023-04-16T05:20:35.330Z,1018.65
2023-04-16T05:21:35.508Z,1018.68
2023-04-16T05:22:35.689Z,1018.65
2023-04-16T05:23:35.860Z,1018.68
2023-04-16T05:24:36.023Z,1018.71
2023-04-16T05:25:36.196Z,1018.72
2023-04-16T05:26:36.365Z,1018.74
2023-04-16T05:27:36.560Z,1018.76
2023-04-16T05:28:36.719Z,1018.71
2023-04-16T05:29:36.884Z,1018.73
2023-04-16T05:30:37.116Z,1018.76
2023-04-16T05:31:37.219Z,1018.78
2023-04-16T05:32:37.428Z,1018.76
2023-04-16T05:33:37.561Z,1018.80
2023-04-16T05:34:37.722Z,1018.80
2023-04-16T05:35:37.886Z,1018.80
2023-04-16T05:36:38.058Z,1018.82
2023-04-16T05:37:38.233Z,1018.84
2023-04-16T05:38:38.406Z,1018.85
2023-04-16T05:39:38.626Z,1018.85
2023-04-16T05:40:38.781Z,1018.84
2023-04-16T05:41:38.946Z,1018.85
2023-04-16T05:42:39.129Z,1018.90
2023-04-16T05:43:39.304Z,1018.92
2023-04-16T05:44:39.485Z,1018.90
2023-04-16T05:45:39.659Z,1018.90
2023-04-16T05:46:39.976Z,1018.90
2023-04-16T05:47:40.054Z,1018.89
2023-04-16T05:48:40.281Z,1018.94
2023-04-16T05:49:40.342Z,1018.91
2023-04-16T05:50:40.546Z,1018.88
2023-04-16T05:51:40.700Z,1018.89
2023-04-16T05:52:40.906Z,1018.94
2023-04-16T05:53:41.062Z,1018.91
2023-04-16T05:54:41.234Z,1018.93
2023-04-16T05:55:41.416Z,1018.93
2023-04-16T05:56:41.587Z,1018.95
2023-04-16T05:57:41.779Z,1018.96
2023-04-16T05:58:41.950Z,1018.99
2023-04-16T05:59:42.143Z,1019.00
2023-04-16T06:00:42.305Z,1019.02
2023-04-16T06:01:42.483Z,1019.00
2023-04-16T06:02:42.783Z,1019.03
2023-04-16T06:03:42.946Z,1019.05
2023-04-16T06:04:43.036Z,1019.02
2023-04-16T06:05:43.245Z,1019.02
2023-04-16T06:06:43.375Z,1019.04
2023-04-16T06:07:43.550Z,1019.07
2023-04-16T06:08:43.727Z,1019.10
2023-04-16T06:09:43.893Z,1019.12
2023-04-16T06:10:44.067Z,1019.13
2023-04-16T06:11:44.234Z,1019.11
2023-04-16T06:12:44.412Z,1019.10
2023-04-16T06:13:44.578Z,1019.15
2023-04-16T06:14:44.755Z,1019.18
2023-04-16T06:15:44.989Z,1019.13
2023-04-16T06:16:45.102Z,1019.17
2023-04-16T06:17:45.318Z,1019.17
2023-04-16T06:18:45.446Z,1019.16
2023-04-16T06:19:45.620Z,1019.19
2023-04-16T06:20:45.795Z,1019.19
2023-04-16T06:21:45.949Z,1019.22
2023-04-16T06:22:46.123Z,1019.21
2023-04-16T06:23:46.287Z,1019.21
2023-04-16T06:24:46.466Z,1019.20
2023-04-16T06:25:46.640Z,1019.25
2023-04-16T06:26:46.786Z,1019.25
2023-04-16T06:27:46.985Z,1019.24
2023-04-16T06:28:47.130Z,1019.25
2023-04-16T06:29:47.298Z,1019.27
2023-04-16T06:30:47.474Z,1019.27
2023-04-16T06:31:47.751Z,1019.32
2023-04-16T06:32:48.013Z,1019.28
2023-04-16T06:33:47.982Z,1019.30
2023-04-16T06:34:48.142Z,1019.27
2023-04-16T06:35:48.310Z,1019.28
2023-04-16T06:36:48.481Z,1019.30
2023-04-16T06:37:48.658Z,1019.33
2023-04-16T06:38:48.819Z,1019.38
2023-04-16T06:39:48.983Z,1019.35
2023-04-16T06:40:49.157Z,1019.34
2023-04-16T06:41:49.334Z,1019.35
2023-04-16T06:42:49.502Z,1019.34
2023-04-16T06:43:49.665Z,1019.33
2023-04-16T06:44:49.832Z,1019.33
2023-04-16T06:45:50.034Z,1019.28
2023-04-16T06:46:50.243Z,1019.33
2023-04-16T06:47:50.439Z,1019.32
2023-04-16T06:48:50.537Z,1019.34
2023-04-16T06:49:50.705Z,1019.40
2023-04-16T06:50:50.872Z,1019.35
2023-04-16T06:51:51.033Z,1019.37
2023-04-16T06:52:51.213Z,1019.39
2023-04-16T06:53:51.385Z,1019.39
2023-04-16T06:54:51.582Z,1019.41
2023-04-16T06:55:51.728Z,1019.37
2023-04-16T06:56:51.874Z,1019.37
2023-04-16T06:57:52.088Z,1019.38
2023-04-16T06:58:52.255Z,1019.40
2023-04-16T06:59:52.431Z,1019.41
2023-04-16T07:00:52.658Z,1019.42
2023-04-16T07:01:53.015Z,1019.42
2023-04-16T07:02:53.147Z,1019.44
2023-04-16T07:03:53.438Z,1019.43
2023-04-16T07:04:53.288Z,1019.44
2023-04-16T07:05:53.466Z,1019.45
2023-04-16T07:06:53.633Z,1019.47
2023-04-16T07:07:53.842Z,1019.43
2023-04-16T07:08:53.983Z,1019.48
2023-04-16T07:09:54.141Z,1019.46
2023-04-16T07:10:54.319Z,1019.48
2023-04-16T07:11:54.498Z,1019.49
2023-04-16T07:12:54.630Z,1019.50
2023-04-16T07:13:54.797Z,1019.50
2023-04-16T07:14:54.973Z,1019.53
2023-04-16T07:15:55.135Z,1019.54
2023-04-16T07:16:55.347Z,1019.51
2023-04-16T07:17:55.476Z,1019.54
2023-04-16T07:18:55.627Z,1019.53
2023-04-16T07:19:55.805Z,1019.56
2023-04-16T07:20:55.972Z,1019.56
2023-04-16T07:21:56.141Z,1019.57
2023-04-16T07:22:56.322Z,1019.58
2023-04-16T07:23:56.493Z,1019.60
2023-04-16T07:24:56.658Z,1019.61
2023-04-16T07:25:56.812Z,1019.65
2023-04-16T07:26:56.991Z,1019.64
2023-04-16T07:27:57.178Z,1019.67
2023-04-16T07:28:57.325Z,1019.68
2023-04-16T07:29:57.490Z,1019.63
2023-04-16T07:30:57.661Z,1019.69
2023-04-16T07:31:57.872Z,1019.72
2023-04-16T07:32:58.071Z,1019.66
2023-04-16T07:33:58.175Z,1019.67
2023-04-16T07:34:58.317Z,1019.71
2023-04-16T07:35:58.484Z,1019.70
2023-04-16T07:36:58.664Z,1019.70
2023-04-16T07:37:58.855Z,1019.74
2023-04-16T07:38:59.022Z,1019.76
2023-04-16T07:39:59.192Z,1019.70
2023-04-16T07:40:59.379Z,1019.72
2023-04-16T07:41:59.531Z,1019.77
2023-04-16T07:42:59.700Z,1019.75
2023-04-16T07:43:59.886Z,1019.76
2023-04-16T07:45:00.083Z,1019.82
2023-04-16T07:46:00.282Z,1019.81
2023-04-16T07:47:00.523Z,1019.81
2023-04-16T07:48:00.638Z,1019.82
2023-04-16T07:49:00.796Z,1019.85
2023-04-16T07:50:00.982Z,1019.87
2023-04-16T07:51:01.155Z,1019.85
2023-04-16T07:52:01.327Z,1019.88
2023-04-16T07:53:01.489Z,1019.90
2023-04-16T07:54:01.661Z,1019.88
2023-04-16T07:55:01.844Z,1019.84
2023-04-16T07:56:01.983Z,1019.87
2023-04-16T07:57:02.184Z,1019.91
2023-04-16T07:58:02.325Z,1019.89
2023-04-16T07:59:14.440Z,1019.87
2023-04-16T08:00:03.657Z,1019.89
2023-04-16T08:01:02.833Z,1019.89
2023-04-16T08:02:03.055Z,1019.89
2023-04-16T08:03:03.309Z,1019.93
2023-04-16T08:04:03.495Z,1019.91
2023-04-16T08:05:03.633Z,1019.94
2023-04-16T08:06:03.699Z,1019.94
2023-04-16T08:07:03.903Z,1019.96
2023-04-16T08:08:04.049Z,1019.96
2023-04-16T08:09:04.212Z,1020.00
2023-04-16T08:10:04.406Z,1020.00
2023-04-16T08:11:04.566Z,1020.01
2023-04-16T08:12:04.727Z,1020.00
2023-04-16T08:13:04.915Z,1019.99
2023-04-16T08:14:05.059Z,1020.05
2023-04-16T08:15:05.232Z,1019.98
2023-04-16T08:16:05.417Z,1020.05
2023-04-16T08:17:05.560Z,1020.03
2023-04-16T08:18:05.867Z,1020.05
2023-04-16T08:19:05.924Z,1020.05
2023-04-16T08:20:06.113Z,1020.08
2023-04-16T08:21:06.285Z,1020.08
2023-04-16T08:22:06.458Z,1020.07
2023-04-16T08:23:06.604Z,1020.06
2023-04-16T08:24:06.791Z,1020.16
2023-04-16T08:25:06.950Z,1020.14
2023-04-16T08:26:07.143Z,1020.13
2023-04-16T08:27:17.807Z,1020.15
2023-04-16T08:28:08.518Z,1020.14
2023-04-16T08:29:07.902Z,1020.13
2023-04-16T08:30:07.833Z,1020.17
2023-04-16T08:31:08.102Z,1020.20
2023-04-16T08:32:08.197Z,1020.23
2023-04-16T08:33:08.404Z,1020.21
2023-04-16T08:34:08.537Z,1020.24
2023-04-16T08:35:08.711Z,1020.27
2023-04-16T08:36:08.877Z,1020.28
2023-04-16T08:37:09.087Z,1020.26
2023-04-16T08:38:09.256Z,1020.28
2023-04-16T08:39:09.972Z,1020.29
2023-04-16T08:40:09.615Z,1020.31
2023-04-16T08:41:09.783Z,1020.34
2023-04-16T08:42:09.999Z,1020.38
2023-04-16T08:43:10.167Z,1020.36
2023-04-16T08:44:10.317Z,1020.36
2023-04-16T08:45:10.498Z,1020.40
2023-04-16T08:46:10.722Z,1020.37
2023-04-16T08:47:10.845Z,1020.39
2023-04-16T08:48:11.063Z,1020.40
2023-04-16T08:49:11.438Z,1020.41
2023-04-16T08:50:11.474Z,1020.40
2023-04-16T08:51:11.563Z,1020.45
2023-04-16T08:52:11.746Z,1020.45
2023-04-16T08:53:11.936Z,1020.47
2023-04-16T08:54:12.105Z,1020.50
2023-04-16T08:55:12.364Z,1020.43
2023-04-16T08:56:12.461Z,1020.46
2023-04-16T08:57:12.607Z,1020.45
2023-04-16T08:58:12.752Z,1020.47
2023-04-16T08:59:12.939Z,1020.47
2023-04-16T09:00:13.131Z,1020.50
2023-04-16T09:01:13.317Z,1020.49
2023-04-16T09:02:13.561Z,1020.46
2023-04-16T09:03:13.808Z,1020.47
2023-04-16T09:04:13.966Z,1020.51
2023-04-16T09:05:14.046Z,1020.53
2023-04-16T09:06:14.210Z,1020.49
2023-04-16T09:07:14.393Z,1020.50
2023-04-16T09:08:14.552Z,1020.51
2023-04-16T09:09:14.733Z,1020.50
2023-04-16T09:10:14.922Z,1020.51
2023-04-16T09:11:15.068Z,1020.56
2023-04-16T09:12:15.284Z,1020.58
2023-04-16T09:13:15.442Z,1020.58
2023-04-16T09:14:15.599Z,1020.55
2023-04-16T09:15:15.780Z,1020.58
2023-04-16T09:16:16.003Z,1020.59
2023-04-16T09:17:16.159Z,1020.63
2023-04-16T09:18:16.328Z,1020.63
2023-04-16T09:19:16.479Z,1020.65
2023-04-16T09:20:16.671Z,1020.64
2023-04-16T09:21:16.839Z,1020.65
2023-04-16T09:22:17.028Z,1020.65
2023-04-16T09:23:17.186Z,1020.65
2023-04-16T09:24:17.344Z,1020.70
2023-04-16T09:25:17.522Z,1020.69
2023-04-16T09:26:17.702Z,1020.69
2023-04-16T09:27:17.889Z,1020.67
2023-04-16T09:28:18.046Z,1020.68
2023-04-16T09:29:18.197Z,1020.69
2023-04-16T09:30:18.388Z,1020.67
2023-04-16T09:31:18.631Z,1020.70
2023-04-16T09:32:18.792Z,1020.73
2023-04-16T09:33:18.945Z,1020.67
2023-04-16T09:34:19.093Z,1020.72
2023-04-16T09:35:19.282Z,1020.70
2023-04-16T09:36:19.479Z,1020.72
2023-04-16T09:37:19.628Z,1020.74
2023-04-16T09:38:19.836Z,1020.70
2023-04-16T09:39:20.006Z,1020.75
2023-04-16T09:40:20.174Z,1020.72
2023-04-16T09:41:20.325Z,1020.74
2023-04-16T09:42:20.477Z,1020.73
2023-04-16T09:43:20.643Z,1020.76
2023-04-16T09:44:20.829Z,1020.76
2023-04-16T09:45:21.002Z,1020.81
2023-04-16T09:46:21.242Z,1020.81
2023-04-16T09:47:21.384Z,1020.81
2023-04-16T09:48:21.554Z,1020.82
2023-04-16T09:49:21.729Z,1020.86
2023-04-16T09:50:21.906Z,1020.79
2023-04-16T09:51:22.136Z,1020.81
2023-04-16T09:52:22.296Z,1020.85
2023-04-16T09:53:22.473Z,1020.86
2023-04-16T09:54:22.665Z,1020.84
2023-04-16T09:55:22.855Z,1020.85
2023-04-16T09:56:23.063Z,1020.84
2023-04-16T09:57:23.224Z,1020.84
2023-04-16T09:58:23.388Z,1020.83
2023-04-16T09:59:23.541Z,1020.89
2023-04-16T10:00:23.737Z,1020.87
2023-04-16T10:01:23.964Z,1020.89
2023-04-16T10:02:24.125Z,1020.84
2023-04-16T10:03:24.376Z,1020.88
2023-04-16T10:04:24.423Z,1020.86
2023-04-16T10:05:24.584Z,1020.82
2023-04-16T10:06:24.778Z,1020.86
2023-04-16T10:07:24.922Z,1020.89
2023-04-16T10:08:25.104Z,1020.83
2023-04-16T10:09:25.286Z,1020.83
2023-04-16T10:10:25.464Z,1020.84
2023-04-16T10:11:25.675Z,1020.84
2023-04-16T10:12:25.821Z,1020.86
2023-04-16T10:13:25.996Z,1020.84
2023-04-16T10:14:26.167Z,1020.95
2023-04-16T10:15:26.337Z,1020.90
2023-04-16T10:16:26.579Z,1020.89
2023-04-16T10:17:26.719Z,1020.92
2023-04-16T10:18:26.861Z,1020.91
2023-04-16T10:19:27.043Z,1020.93
2023-04-16T10:20:27.209Z,1020.98
2023-04-16T10:21:27.395Z,1020.99
2023-04-16T10:22:27.544Z,1020.98
2023-04-16T10:23:27.714Z,1021.00
2023-04-16T10:24:27.884Z,1021.03
2023-04-16T10:25:28.064Z,1021.05
2023-04-16T10:26:28.207Z,1021.06
2023-04-16T10:27:28.382Z,1021.07
2023-04-16T10:28:28.557Z,1021.05
2023-04-16T10:29:28.752Z,1021.05
2023-04-16T10:30:28.950Z,1021.05
2023-04-16T10:31:29.191Z,1021.05
2023-04-16T10:32:29.265Z,1021.07
2023-04-16T10:33:29.450Z,1021.04
2023-04-16T10:34:29.609Z,1021.05
2023-04-16T10:35:29.797Z,1021.06
2023-04-16T10:36:29.945Z,1021.04
2023-04-16T10:37:30.137Z,1021.05
2023-04-16T10:38:30.317Z,1021.08
2023-04-16T10:39:30.455Z,1021.04
2023-04-16T10:40:30.639Z,1021.05
2023-04-16T10:41:30.823Z,1021.09
2023-04-16T10:42:30.989Z,1021.08
2023-04-16T10:43:31.163Z,1021.13
2023-04-16T10:44:31.313Z,1021.12
2023-04-16T10:45:31.515Z,1021.11
2023-04-16T10:46:31.697Z,1021.10
2023-04-16T10:47:31.848Z,1021.10
2023-04-16T10:48:46.608Z,1021.11
2023-04-16T10:49:33.222Z,1021.12
2023-04-16T10:50:32.386Z,1021.07
2023-04-16T10:51:32.534Z,1021.11
2023-04-16T10:52:32.701Z,1021.11
2023-04-16T10:53:32.878Z,1021.15
2023-04-16T10:54:33.053Z,1021.09
2023-04-16T10:55:33.244Z,1021.11
2023-04-16T10:56:33.410Z,1021.10
2023-04-16T10:57:33.586Z,1021.11
2023-04-16T10:58:33.767Z,1021.14
2023-04-16T10:59:33.985Z,1021.13
2023-04-16T11:00:34.135Z,1021.21
2023-04-16T11:01:34.354Z,1021.19
2023-04-16T11:02:34.611Z,1021.21
2023-04-16T11:03:34.711Z,1021.17
2023-04-16T11:04:34.897Z,1021.20
2023-04-16T11:05:35.016Z,1021.18
2023-04-16T11:06:35.155Z,1021.13
2023-04-16T11:07:35.392Z,1021.17
2023-04-16T11:08:44.304Z,1021.18
2023-04-16T11:09:36.694Z,1021.19
2023-04-16T11:10:35.868Z,1021.19
2023-04-16T11:11:36.038Z,1021.19
2023-04-16T11:12:36.249Z,1021.19
2023-04-16T11:13:36.396Z,1021.17
2023-04-16T11:14:36.561Z,1021.21
2023-04-16T11:15:36.755Z,1021.21
2023-04-16T11:16:36.909Z,1021.23
2023-04-16T11:17:37.267Z,1021.22
2023-04-16T11:18:37.246Z,1021.22
2023-04-16T11:19:38.443Z,1021.23
2023-04-16T11:20:37.628Z,1021.22
2023-04-16T11:21:37.781Z,1021.19
2023-04-16T11:22:37.980Z,1021.28
2023-04-16T11:23:38.167Z,1021.27
2023-04-16T11:24:38.297Z,1021.24
2023-04-16T11:25:38.510Z,1021.30
2023-04-16T11:26:38.648Z,1021.23
2023-04-16T11:27:38.840Z,1021.26
2023-04-16T11:28:39.014Z,1021.26
2023-04-16T11:29:39.207Z,1021.23
2023-04-16T11:30:39.396Z,1021.22
2023-04-16T11:31:39.620Z,1021.28
2023-04-16T11:32:39.792Z,1021.30
2023-04-16T11:33:39.987Z,1021.29
2023-04-16T11:34:40.113Z,1021.29
2023-04-16T11:35:40.303Z,1021.26
2023-04-16T11:36:40.469Z,1021.28
2023-04-16T11:37:40.648Z,1021.29
2023-04-16T11:38:40.856Z,1021.29
2023-04-16T11:39:41.014Z,1021.27
2023-04-16T11:40:41.205Z,1021.26
2023-04-16T11:41:41.382Z,1021.26
2023-04-16T11:42:41.611Z,1021.26
2023-04-16T11:43:41.752Z,1021.32
2023-04-16T11:44:41.933Z,1021.34
2023-04-16T11:45:42.135Z,1021.30
2023-04-16T11:46:42.296Z,1021.29
2023-04-16T11:47:42.473Z,1021.29
2023-04-16T11:48:42.636Z,1021.30
2023-04-16T11:49:42.783Z,1021.34
2023-04-16T11:50:42.971Z,1021.33
2023-04-16T11:51:43.116Z,1021.34
2023-04-16T11:52:43.293Z,1021.34
2023-04-16T11:53:43.470Z,1021.35
2023-04-16T11:54:43.654Z,1021.39
2023-04-16T11:55:43.848Z,1021.39
2023-04-16T11:56:43.993Z,1021.33
2023-04-16T11:57:44.174Z,1021.38
2023-04-16T11:58:44.337Z,1021.36
2023-04-16T12:00:01.635Z,1021.42
2023-04-16T12:00:45.717Z,1021.46
2023-04-16T12:01:44.866Z,1021.47
2023-04-16T12:02:45.191Z,1021.46
2023-04-16T12:03:45.439Z,1021.50
2023-04-16T12:04:45.478Z,1021.49
2023-04-16T12:05:45.596Z,1021.47
2023-04-16T12:06:45.737Z,1021.49
2023-04-16T12:07:45.909Z,1021.47